sensor_id;sensor_type;location;lat;lon;timestamp;P1;durP1;ratioP1;P2;durP2;ratioP2
12059;SDS011;6091;51.432;6.880;2023-02-21T00:01:43;0.40;;;0.40;;
12059;SDS011;6091;51.432;6.880;2023-02-21T00:04:29;0.40;;;0.40;;
12059;SDS011;6091;51.432;6.880;2023-02-21T00:07:14;0.50;;;0.50;;
12059;SDS011;6091;51.432;6.880;2023-02-21T00:10:01;0.40;;;0.40;;
12059;SDS011;6091;51.432;6.880;2023-02-21T00:12:47;0.50;;;0.50;;
12059;SDS011;6091;51.432;6.880;2023-02-21T00:15:33;0.35;;;0.35;;
12059;SDS011;6091;51.432;6.880;2023-02-21T00:18:19;0.30;;;0.30;;
12059;SDS011;6091;51.432;6.880;2023-02-21T00:21:04;0.30;;;0.30;;
12059;SDS011;6091;51.432;6.880;2023-02-21T00:23:50;0.60;;;0.60;;
12059;SDS011;6091;51.432;6.880;2023-02-21T00:26:36;0.50;;;0.50;;
12059;SDS011;6091;51.432;6.880;2023-02-21T00:29:22;0.50;;;0.50;;
12059;SDS011;6091;51.432;6.880;2023-02-21T00:32:08;0.60;;;0.60;;
12059;SDS011;6091;51.432;6.880;2023-02-21T00:34:53;0.65;;;0.65;;
12059;SDS011;6091;51.432;6.880;2023-02-21T00:37:38;0.50;;;0.50;;
12059;SDS011;6091;51.432;6.880;2023-02-21T00:40:24;0.38;;;0.38;;
12059;SDS011;6091;51.432;6.880;2023-02-21T00:43:09;0.50;;;0.50;;
12059;SDS011;6091;51.432;6.880;2023-02-21T00:45:54;0.60;;;0.60;;
12059;SDS011;6091;51.432;6.880;2023-02-21T00:48:40;0.50;;;0.50;;
12059;SDS011;6091;51.432;6.880;2023-02-21T00:51:25;0.50;;;0.50;;
12059;SDS011;6091;51.432;6.880;2023-02-21T00:54:11;0.80;;;0.80;;
12059;SDS011;6091;51.432;6.880;2023-02-21T00:56:56;0.43;;;0.43;;
12059;SDS011;6091;51.432;6.880;2023-02-21T00:59:42;0.40;;;0.40;;
12059;SDS011;6091;51.432;6.880;2023-02-21T01:02:27;0.40;;;0.40;;
12059;SDS011;6091;51.432;6.880;2023-02-21T01:05:13;0.50;;;0.50;;
12059;SDS011;6091;51.432;6.880;2023-02-21T01:07:59;0.40;;;0.40;;
12059;SDS011;6091;51.432;6.880;2023-02-21T01:10:44;0.52;;;0.50;;
12059;SDS011;6091;51.432;6.880;2023-02-21T01:13:30;0.50;;;0.50;;
12059;SDS011;6091;51.432;6.880;2023-02-21T01:16:15;0.50;;;0.50;;
12059;SDS011;6091;51.432;6.880;2023-02-21T01:19:01;0.50;;;0.50;;
12059;SDS011;6091;51.432;6.880;2023-02-21T01:21:46;0.60;;;0.60;;
12059;SDS011;6091;51.432;6.880;2023-02-21T01:24:32;0.70;;;0.70;;
12059;SDS011;6091;51.432;6.880;2023-02-21T01:27:17;0.47;;;0.47;;
12059;SDS011;6091;51.432;6.880;2023-02-21T01:30:03;0.50;;;0.50;;
12059;SDS011;6091;51.432;6.880;2023-02-21T01:32:48;0.38;;;0.38;;
12059;SDS011;6091;51.432;6.880;2023-02-21T01:35:34;0.60;;;0.60;;
12059;SDS011;6091;51.432;6.880;2023-02-21T01:38:20;0.60;;;0.60;;
12059;SDS011;6091;51.432;6.880;2023-02-21T01:41:05;0.50;;;0.50;;
12059;SDS011;6091;51.432;6.880;2023-02-21T01:47:11;0.68;;;0.50;;
12059;SDS011;6091;51.432;6.880;2023-02-21T01:49:58;0.50;;;0.50;;
12059;SDS011;6091;51.432;6.880;2023-02-21T01:52:47;1.48;;;0.60;;
12059;SDS011;6091;51.432;6.880;2023-02-21T01:55:35;0.50;;;0.50;;
12059;SDS011;6091;51.432;6.880;2023-02-21T01:58:24;0.50;;;0.50;;
12059;SDS011;6091;51.432;6.880;2023-02-21T02:01:19;0.50;;;0.50;;
12059;SDS011;6091;51.432;6.880;2023-02-21T02:04:16;0.88;;;0.60;;
12059;SDS011;6091;51.432;6.880;2023-02-21T02:07:02;0.50;;;0.50;;
12059;SDS011;6091;51.432;6.880;2023-02-21T02:09:48;0.50;;;0.50;;
12059;SDS011;6091;51.432;6.880;2023-02-21T02:19:11;0.60;;;0.60;;
12059;SDS011;6091;51.432;6.880;2023-02-21T02:27:49;0.50;;;0.50;;
12059;SDS011;6091;51.432;6.880;2023-02-21T02:37:22;0.50;;;0.50;;
12059;SDS011;6091;51.432;6.880;2023-02-21T02:45:14;0.40;;;0.40;;
12059;SDS011;6091;51.432;6.880;2023-02-21T02:47:57;0.60;;;0.60;;
12059;SDS011;6091;51.432;6.880;2023-02-21T02:50:33;0.40;;;0.40;;
12059;SDS011;6091;51.432;6.880;2023-02-21T02:53:01;0.50;;;0.50;;
12059;SDS011;6091;51.432;6.880;2023-02-21T02:58:15;0.55;;;0.55;;
12059;SDS011;6091;51.432;6.880;2023-02-21T03:00:47;0.60;;;0.60;;
12059;SDS011;6091;51.432;6.880;2023-02-21T03:03:51;0.50;;;0.50;;
12059;SDS011;6091;51.432;6.880;2023-02-21T03:09:44;0.40;;;0.40;;
12059;SDS011;6091;51.432;6.880;2023-02-21T03:12:43;0.57;;;0.57;;
12059;SDS011;6091;51.432;6.880;2023-02-21T03:17:53;0.65;;;0.65;;
12059;SDS011;6091;51.432;6.880;2023-02-21T03:20:30;0.50;;;0.50;;
12059;SDS011;6091;51.432;6.880;2023-02-21T03:22:59;0.40;;;0.40;;
12059;SDS011;6091;51.432;6.880;2023-02-21T03:25:30;0.47;;;0.47;;
12059;SDS011;6091;51.432;6.880;2023-02-21T03:28:01;0.50;;;0.50;;
12059;SDS011;6091;51.432;6.880;2023-02-21T03:30:28;0.55;;;0.55;;
12059;SDS011;6091;51.432;6.880;2023-02-21T03:32:56;0.60;;;0.60;;
12059;SDS011;6091;51.432;6.880;2023-02-21T03:35:23;0.70;;;0.70;;
12059;SDS011;6091;51.432;6.880;2023-02-21T03:37:56;0.52;;;0.52;;
12059;SDS011;6091;51.432;6.880;2023-02-21T03:40:26;0.60;;;0.60;;
12059;SDS011;6091;51.432;6.880;2023-02-21T03:42:56;0.50;;;0.50;;
12059;SDS011;6091;51.432;6.880;2023-02-21T03:45:25;0.50;;;0.50;;
12059;SDS011;6091;51.432;6.880;2023-02-21T03:47:52;0.60;;;0.60;;
12059;SDS011;6091;51.432;6.880;2023-02-21T03:50:19;0.60;;;0.60;;
12059;SDS011;6091;51.432;6.880;2023-02-21T03:52:46;0.50;;;0.50;;
12059;SDS011;6091;51.432;6.880;2023-02-21T03:55:13;0.50;;;0.50;;
12059;SDS011;6091;51.432;6.880;2023-02-21T03:57:40;0.50;;;0.50;;
12059;SDS011;6091;51.432;6.880;2023-02-21T04:00:07;0.50;;;0.50;;
12059;SDS011;6091;51.432;6.880;2023-02-21T04:02:36;0.60;;;0.60;;
12059;SDS011;6091;51.432;6.880;2023-02-21T04:05:03;0.60;;;0.60;;
12059;SDS011;6091;51.432;6.880;2023-02-21T04:07:30;0.50;;;0.50;;
12059;SDS011;6091;51.432;6.880;2023-02-21T04:09:57;0.45;;;0.45;;
12059;SDS011;6091;51.432;6.880;2023-02-21T04:12:24;0.63;;;0.63;;
12059;SDS011;6091;51.432;6.880;2023-02-21T04:14:51;0.50;;;0.50;;
12059;SDS011;6091;51.432;6.880;2023-02-21T04:17:21;0.60;;;0.60;;
12059;SDS011;6091;51.432;6.880;2023-02-21T04:19:48;0.60;;;0.60;;
12059;SDS011;6091;51.432;6.880;2023-02-21T04:22:15;0.60;;;0.60;;
12059;SDS011;6091;51.432;6.880;2023-02-21T04:24:43;0.60;;;0.60;;
12059;SDS011;6091;51.432;6.880;2023-02-21T04:27:10;0.63;;;0.63;;
12059;SDS011;6091;51.432;6.880;2023-02-21T04:29:36;0.68;;;0.68;;
12059;SDS011;6091;51.432;6.880;2023-02-21T04:32:03;0.70;;;0.70;;
12059;SDS011;6091;51.432;6.880;2023-02-21T04:34:31;0.60;;;0.60;;
12059;SDS011;6091;51.432;6.880;2023-02-21T04:36:58;0.50;;;0.50;;
12059;SDS011;6091;51.432;6.880;2023-02-21T04:39:25;0.75;;;0.73;;
12059;SDS011;6091;51.432;6.880;2023-02-21T04:41:51;0.50;;;0.50;;
12059;SDS011;6091;51.432;6.880;2023-02-21T04:44:18;0.70;;;0.70;;
12059;SDS011;6091;51.432;6.880;2023-02-21T04:46:45;0.50;;;0.50;;
12059;SDS011;6091;51.432;6.880;2023-02-21T04:49:12;0.50;;;0.50;;
12059;SDS011;6091;51.432;6.880;2023-02-21T04:51:40;0.60;;;0.60;;
12059;SDS011;6091;51.432;6.880;2023-02-21T04:54:07;0.70;;;0.70;;
12059;SDS011;6091;51.432;6.880;2023-02-21T04:56:34;0.50;;;0.50;;
12059;SDS011;6091;51.432;6.880;2023-02-21T04:59:03;0.50;;;0.50;;
12059;SDS011;6091;51.432;6.880;2023-02-21T05:01:30;0.43;;;0.43;;
12059;SDS011;6091;51.432;6.880;2023-02-21T05:03:58;1.13;;;0.73;;
12059;SDS011;6091;51.432;6.880;2023-02-21T05:06:29;0.60;;;0.60;;
12059;SDS011;6091;51.432;6.880;2023-02-21T05:08:57;0.50;;;0.50;;
12059;SDS011;6091;51.432;6.880;2023-02-21T05:11:25;0.70;;;0.70;;
12059;SDS011;6091;51.432;6.880;2023-02-21T05:13:52;0.57;;;0.57;;
12059;SDS011;6091;51.432;6.880;2023-02-21T05:16:20;0.70;;;0.70;;
12059;SDS011;6091;51.432;6.880;2023-02-21T05:18:47;0.70;;;0.70;;
12059;SDS011;6091;51.432;6.880;2023-02-21T05:21:15;0.60;;;0.60;;
12059;SDS011;6091;51.432;6.880;2023-02-21T05:23:44;0.55;;;0.55;;
12059;SDS011;6091;51.432;6.880;2023-02-21T05:26:22;0.75;;;0.75;;
12059;SDS011;6091;51.432;6.880;2023-02-21T05:28:56;0.80;;;0.80;;
12059;SDS011;6091;51.432;6.880;2023-02-21T05:31:23;0.60;;;0.60;;
12059;SDS011;6091;51.432;6.880;2023-02-21T05:33:50;0.65;;;0.65;;
12059;SDS011;6091;51.432;6.880;2023-02-21T05:36:17;0.70;;;0.70;;
12059;SDS011;6091;51.432;6.880;2023-02-21T05:38:46;0.68;;;0.68;;
12059;SDS011;6091;51.432;6.880;2023-02-21T05:41:16;0.70;;;0.70;;
12059;SDS011;6091;51.432;6.880;2023-02-21T05:43:45;0.80;;;0.80;;
12059;SDS011;6091;51.432;6.880;2023-02-21T05:46:22;0.60;;;0.60;;
12059;SDS011;6091;51.432;6.880;2023-02-21T05:48:53;0.50;;;0.50;;
12059;SDS011;6091;51.432;6.880;2023-02-21T05:51:23;0.60;;;0.60;;
12059;SDS011;6091;51.432;6.880;2023-02-21T05:53:50;0.50;;;0.50;;
12059;SDS011;6091;51.432;6.880;2023-02-21T05:56:17;0.60;;;0.60;;
12059;SDS011;6091;51.432;6.880;2023-02-21T05:58:46;0.80;;;0.80;;
12059;SDS011;6091;51.432;6.880;2023-02-21T06:01:14;0.60;;;0.60;;
12059;SDS011;6091;51.432;6.880;2023-02-21T06:03:42;0.80;;;0.80;;
12059;SDS011;6091;51.432;6.880;2023-02-21T06:06:09;0.68;;;0.68;;
12059;SDS011;6091;51.432;6.880;2023-02-21T06:08:43;0.70;;;0.70;;
12059;SDS011;6091;51.432;6.880;2023-02-21T06:11:12;0.80;;;0.80;;
12059;SDS011;6091;51.432;6.880;2023-02-21T06:13:41;0.70;;;0.70;;
12059;SDS011;6091;51.432;6.880;2023-02-21T06:16:08;0.63;;;0.63;;
12059;SDS011;6091;51.432;6.880;2023-02-21T06:18:35;0.47;;;0.47;;
12059;SDS011;6091;51.432;6.880;2023-02-21T06:21:02;0.65;;;0.65;;
12059;SDS011;6091;51.432;6.880;2023-02-21T06:23:29;0.70;;;0.70;;
12059;SDS011;6091;51.432;6.880;2023-02-21T06:25:56;0.70;;;0.70;;
12059;SDS011;6091;51.432;6.880;2023-02-21T06:28:27;0.68;;;0.68;;
12059;SDS011;6091;51.432;6.880;2023-02-21T06:30:56;0.50;;;0.50;;
12059;SDS011;6091;51.432;6.880;2023-02-21T06:33:23;0.55;;;0.55;;
12059;SDS011;6091;51.432;6.880;2023-02-21T06:35:50;0.60;;;0.60;;
12059;SDS011;6091;51.432;6.880;2023-02-21T06:38:17;0.70;;;0.70;;
12059;SDS011;6091;51.432;6.880;2023-02-21T06:40:44;0.60;;;0.60;;
12059;SDS011;6091;51.432;6.880;2023-02-21T06:43:12;0.60;;;0.60;;
12059;SDS011;6091;51.432;6.880;2023-02-21T06:45:40;0.80;;;0.80;;
12059;SDS011;6091;51.432;6.880;2023-02-21T06:48:07;0.80;;;0.80;;
12059;SDS011;6091;51.432;6.880;2023-02-21T06:50:34;0.73;;;0.73;;
12059;SDS011;6091;51.432;6.880;2023-02-21T06:53:01;0.70;;;0.70;;
12059;SDS011;6091;51.432;6.880;2023-02-21T06:55:28;0.95;;;0.60;;
12059;SDS011;6091;51.432;6.880;2023-02-21T06:57:55;15.73;;;10.77;;
12059;SDS011;6091;51.432;6.880;2023-02-21T07:00:22;16.85;;;9.85;;
12059;SDS011;6091;51.432;6.880;2023-02-21T07:02:49;11.73;;;7.38;;
12059;SDS011;6091;51.432;6.880;2023-02-21T07:05:16;10.48;;;5.63;;
12059;SDS011;6091;51.432;6.880;2023-02-21T07:07:44;11.98;;;4.20;;
12059;SDS011;6091;51.432;6.880;2023-02-21T07:10:12;9.35;;;4.18;;
12059;SDS011;6091;51.432;6.880;2023-02-21T07:12:39;10.48;;;4.03;;
12059;SDS011;6091;51.432;6.880;2023-02-21T07:15:06;8.23;;;3.33;;
12059;SDS011;6091;51.432;6.880;2023-02-21T07:17:33;10.50;;;3.45;;
12059;SDS011;6091;51.432;6.880;2023-02-21T07:20:00;7.13;;;4.05;;
12059;SDS011;6091;51.432;6.880;2023-02-21T07:22:29;9.88;;;3.53;;
12059;SDS011;6091;51.432;6.880;2023-02-21T07:24:56;7.30;;;3.55;;
12059;SDS011;6091;51.432;6.880;2023-02-21T07:27:25;14.95;;;3.70;;
12059;SDS011;6091;51.432;6.880;2023-02-21T07:29:52;8.95;;;3.50;;
12059;SDS011;6091;51.432;6.880;2023-02-21T07:32:19;10.52;;;3.88;;
12059;SDS011;6091;51.432;6.880;2023-02-21T07:34:47;10.00;;;3.35;;
12059;SDS011;6091;51.432;6.880;2023-02-21T07:37:14;8.90;;;3.63;;
12059;SDS011;6091;51.432;6.880;2023-02-21T07:39:42;8.93;;;3.70;;
12059;SDS011;6091;51.432;6.880;2023-02-21T07:42:09;8.20;;;3.28;;
12059;SDS011;6091;51.432;6.880;2023-02-21T07:44:38;6.47;;;3.17;;
12059;SDS011;6091;51.432;6.880;2023-02-21T07:47:05;5.65;;;2.85;;
12059;SDS011;6091;51.432;6.880;2023-02-21T07:49:35;5.78;;;2.60;;
12059;SDS011;6091;51.432;6.880;2023-02-21T07:52:06;4.60;;;2.60;;
12059;SDS011;6091;51.432;6.880;2023-02-21T07:54:33;6.18;;;3.08;;
12059;SDS011;6091;51.432;6.880;2023-02-21T07:57:01;7.28;;;2.55;;
12059;SDS011;6091;51.432;6.880;2023-02-21T07:59:28;4.07;;;2.58;;
12059;SDS011;6091;51.432;6.880;2023-02-21T08:01:56;4.55;;;2.60;;
12059;SDS011;6091;51.432;6.880;2023-02-21T08:04:23;8.50;;;3.72;;
12059;SDS011;6091;51.432;6.880;2023-02-21T08:06:50;9.52;;;2.95;;
12059;SDS011;6091;51.432;6.880;2023-02-21T08:09:18;4.82;;;2.60;;
12059;SDS011;6091;51.432;6.880;2023-02-21T08:11:45;6.47;;;2.78;;
12059;SDS011;6091;51.432;6.880;2023-02-21T08:14:11;7.70;;;2.90;;
12059;SDS011;6091;51.432;6.880;2023-02-21T08:16:39;6.30;;;2.53;;
12059;SDS011;6091;51.432;6.880;2023-02-21T08:19:06;5.93;;;2.25;;
12059;SDS011;6091;51.432;6.880;2023-02-21T08:21:34;2.65;;;2.22;;
12059;SDS011;6091;51.432;6.880;2023-02-21T08:24:02;3.75;;;2.25;;
12059;SDS011;6091;51.432;6.880;2023-02-21T08:26:29;3.97;;;2.17;;
12059;SDS011;6091;51.432;6.880;2023-02-21T08:28:56;5.13;;;2.15;;
12059;SDS011;6091;51.432;6.880;2023-02-21T08:31:23;4.47;;;2.38;;
12059;SDS011;6091;51.432;6.880;2023-02-21T08:33:52;5.25;;;2.10;;
12059;SDS011;6091;51.432;6.880;2023-02-21T08:36:19;6.35;;;2.22;;
12059;SDS011;6091;51.432;6.880;2023-02-21T08:38:46;5.65;;;2.17;;
12059;SDS011;6091;51.432;6.880;2023-02-21T08:41:13;5.78;;;2.10;;
12059;SDS011;6091;51.432;6.880;2023-02-21T08:43:41;2.80;;;1.90;;
12059;SDS011;6091;51.432;6.880;2023-02-21T08:46:08;3.63;;;2.33;;
12059;SDS011;6091;51.432;6.880;2023-02-21T08:48:35;3.53;;;1.95;;
12059;SDS011;6091;51.432;6.880;2023-02-21T08:51:02;2.97;;;2.30;;
12059;SDS011;6091;51.432;6.880;2023-02-21T08:53:29;2.90;;;2.20;;
12059;SDS011;6091;51.432;6.880;2023-02-21T08:55:56;2.95;;;2.10;;
12059;SDS011;6091;51.432;6.880;2023-02-21T08:58:23;7.15;;;2.35;;
12059;SDS011;6091;51.432;6.880;2023-02-21T09:00:50;5.30;;;2.15;;
12059;SDS011;6091;51.432;6.880;2023-02-21T09:03:17;4.30;;;2.13;;
12059;SDS011;6091;51.432;6.880;2023-02-21T09:05:44;3.42;;;1.90;;
12059;SDS011;6091;51.432;6.880;2023-02-21T09:08:11;10.43;;;2.53;;
12059;SDS011;6091;51.432;6.880;2023-02-21T09:10:38;7.15;;;2.13;;
12059;SDS011;6091;51.432;6.880;2023-02-21T09:13:12;2.35;;;1.80;;
12059;SDS011;6091;51.432;6.880;2023-02-21T09:15:40;2.97;;;1.85;;
12059;SDS011;6091;51.432;6.880;2023-02-21T09:18:07;3.88;;;1.85;;
12059;SDS011;6091;51.432;6.880;2023-02-21T09:20:37;2.88;;;1.75;;
12059;SDS011;6091;51.432;6.880;2023-02-21T09:23:07;4.43;;;1.60;;
12059;SDS011;6091;51.432;6.880;2023-02-21T09:25:35;3.35;;;1.15;;
12059;SDS011;6091;51.432;6.880;2023-02-21T09:28:02;3.75;;;1.50;;
12059;SDS011;6091;51.432;6.880;2023-02-21T09:30:29;6.82;;;1.40;;
12059;SDS011;6091;51.432;6.880;2023-02-21T09:32:57;3.97;;;1.50;;
12059;SDS011;6091;51.432;6.880;2023-02-21T09:35:24;2.40;;;1.77;;
12059;SDS011;6091;51.432;6.880;2023-02-21T09:37:51;1.67;;;1.38;;
12059;SDS011;6091;51.432;6.880;2023-02-21T09:43:33;4.07;;;1.75;;
12059;SDS011;6091;51.432;6.880;2023-02-21T09:46:07;3.60;;;1.45;;
12059;SDS011;6091;51.432;6.880;2023-02-21T09:48:45;3.70;;;1.55;;
12059;SDS011;6091;51.432;6.880;2023-02-21T09:51:13;2.33;;;1.55;;
12059;SDS011;6091;51.432;6.880;2023-02-21T09:53:43;6.85;;;1.38;;
12059;SDS011;6091;51.432;6.880;2023-02-21T09:56:30;3.35;;;1.27;;
12059;SDS011;6091;51.432;6.880;2023-02-21T09:59:07;2.85;;;1.45;;
12059;SDS011;6091;51.432;6.880;2023-02-21T10:07:53;4.28;;;1.50;;
12059;SDS011;6091;51.432;6.880;2023-02-21T10:17:21;3.13;;;1.30;;
12059;SDS011;6091;51.432;6.880;2023-02-21T10:20:12;3.67;;;1.48;;
12059;SDS011;6091;51.432;6.880;2023-02-21T10:23:00;6.63;;;1.83;;
12059;SDS011;6091;51.432;6.880;2023-02-21T10:25:31;3.40;;;1.50;;
12059;SDS011;6091;51.432;6.880;2023-02-21T10:28:02;4.18;;;1.88;;
12059;SDS011;6091;51.432;6.880;2023-02-21T10:30:33;6.07;;;1.77;;
12059;SDS011;6091;51.432;6.880;2023-02-21T10:33:06;5.40;;;1.33;;
12059;SDS011;6091;51.432;6.880;2023-02-21T10:35:34;8.02;;;2.10;;
12059;SDS011;6091;51.432;6.880;2023-02-21T10:38:23;4.72;;;1.70;;
12059;SDS011;6091;51.432;6.880;2023-02-21T10:40:53;4.15;;;1.23;;
12059;SDS011;6091;51.432;6.880;2023-02-21T10:43:40;4.80;;;1.30;;
12059;SDS011;6091;51.432;6.880;2023-02-21T10:49:37;3.38;;;1.70;;
12059;SDS011;6091;51.432;6.880;2023-02-21T10:52:16;4.57;;;1.50;;
12059;SDS011;6091;51.432;6.880;2023-02-21T10:57:56;2.20;;;1.40;;
12059;SDS011;6091;51.432;6.880;2023-02-21T11:00:34;1.48;;;1.10;;
12059;SDS011;6091;51.432;6.880;2023-02-21T11:05:51;6.38;;;1.30;;
12059;SDS011;6091;51.432;6.880;2023-02-21T11:08:35;3.58;;;1.17;;
12059;SDS011;6091;51.432;6.880;2023-02-21T11:11:07;3.38;;;1.23;;
12059;SDS011;6091;51.432;6.880;2023-02-21T11:13:36;3.65;;;1.58;;
12059;SDS011;6091;51.432;6.880;2023-02-21T11:18:44;2.40;;;1.20;;
12059;SDS011;6091;51.432;6.880;2023-02-21T11:21:14;4.28;;;1.30;;
12059;SDS011;6091;51.432;6.880;2023-02-21T11:23:58;3.95;;;1.60;;
12059;SDS011;6091;51.432;6.880;2023-02-21T11:26:30;4.75;;;1.38;;
12059;SDS011;6091;51.432;6.880;2023-02-21T11:29:15;1.90;;;1.35;;
12059;SDS011;6091;51.432;6.880;2023-02-21T11:31:49;2.83;;;1.20;;
12059;SDS011;6091;51.432;6.880;2023-02-21T11:34:17;4.53;;;1.40;;
12059;SDS011;6091;51.432;6.880;2023-02-21T11:36:46;2.95;;;1.27;;
12059;SDS011;6091;51.432;6.880;2023-02-21T11:41:57;2.40;;;1.30;;
12059;SDS011;6091;51.432;6.880;2023-02-21T11:47:14;2.53;;;1.42;;
12059;SDS011;6091;51.432;6.880;2023-02-21T11:52:44;3.40;;;1.63;;
12059;SDS011;6091;51.432;6.880;2023-02-21T11:55:25;5.77;;;1.80;;
12059;SDS011;6091;51.432;6.880;2023-02-21T12:01:15;6.50;;;1.30;;
12059;SDS011;6091;51.432;6.880;2023-02-21T12:04:18;3.58;;;1.58;;
12059;SDS011;6091;51.432;6.880;2023-02-21T12:12:58;2.40;;;1.20;;
12059;SDS011;6091;51.432;6.880;2023-02-21T12:15:46;5.93;;;1.10;;
12059;SDS011;6091;51.432;6.880;2023-02-21T12:27:16;4.57;;;1.60;;
12059;SDS011;6091;51.432;6.880;2023-02-21T12:47:40;3.00;;;1.30;;
12059;SDS011;6091;51.432;6.880;2023-02-21T12:50:48;2.10;;;1.20;;
12059;SDS011;6091;51.432;6.880;2023-02-21T12:59:09;2.63;;;1.20;;
12059;SDS011;6091;51.432;6.880;2023-02-21T13:02:03;1.52;;;1.17;;
12059;SDS011;6091;51.432;6.880;2023-02-21T13:04:53;2.50;;;1.30;;
12059;SDS011;6091;51.432;6.880;2023-02-21T13:13:47;3.00;;;1.10;;
12059;SDS011;6091;51.432;6.880;2023-02-21T13:16:14;1.95;;;1.20;;
12059;SDS011;6091;51.432;6.880;2023-02-21T13:18:45;1.20;;;1.10;;
12059;SDS011;6091;51.432;6.880;2023-02-21T13:27:40;1.30;;;0.93;;
12059;SDS011;6091;51.432;6.880;2023-02-21T13:30:39;1.40;;;1.17;;
12059;SDS011;6091;51.432;6.880;2023-02-21T13:33:22;2.83;;;1.65;;
12059;SDS011;6091;51.432;6.880;2023-02-21T13:35:55;1.73;;;1.02;;
12059;SDS011;6091;51.432;6.880;2023-02-21T13:38:26;1.02;;;0.93;;
12059;SDS011;6091;51.432;6.880;2023-02-21T13:41:07;2.13;;;1.13;;
12059;SDS011;6091;51.432;6.880;2023-02-21T13:43:46;1.40;;;1.00;;
12059;SDS011;6091;51.432;6.880;2023-02-21T13:46:57;1.60;;;1.17;;
12059;SDS011;6091;51.432;6.880;2023-02-21T13:57:48;0.98;;;0.98;;
12059;SDS011;6091;51.432;6.880;2023-02-21T14:02:56;1.30;;;1.20;;
12059;SDS011;6091;51.432;6.880;2023-02-21T14:08:13;1.65;;;1.20;;
12059;SDS011;6091;51.432;6.880;2023-02-21T14:10:45;1.40;;;1.30;;
12059;SDS011;6091;51.432;6.880;2023-02-21T14:13:25;1.58;;;1.20;;
12059;SDS011;6091;51.432;6.880;2023-02-21T14:16:17;1.52;;;1.30;;
12059;SDS011;6091;51.432;6.880;2023-02-21T14:19:08;2.13;;;1.30;;
12059;SDS011;6091;51.432;6.880;2023-02-21T14:21:48;1.23;;;1.05;;
12059;SDS011;6091;51.432;6.880;2023-02-21T14:24:33;2.45;;;1.30;;
12059;SDS011;6091;51.432;6.880;2023-02-21T14:36:00;1.30;;;1.20;;
12059;SDS011;6091;51.432;6.880;2023-02-21T14:38:36;1.30;;;1.20;;
12059;SDS011;6091;51.432;6.880;2023-02-21T14:43:48;1.23;;;1.13;;
12059;SDS011;6091;51.432;6.880;2023-02-21T14:46:49;1.15;;;1.05;;
12059;SDS011;6091;51.432;6.880;2023-02-21T14:52:38;1.30;;;1.20;;
12059;SDS011;6091;51.432;6.880;2023-02-21T14:55:51;1.58;;;1.23;;
12059;SDS011;6091;51.432;6.880;2023-02-21T15:07:41;1.50;;;1.20;;
12059;SDS011;6091;51.432;6.880;2023-02-21T15:10:31;1.08;;;1.02;;
12059;SDS011;6091;51.432;6.880;2023-02-21T15:13:06;1.52;;;1.42;;
12059;SDS011;6091;51.432;6.880;2023-02-21T15:18:29;1.65;;;1.55;;
12059;SDS011;6091;51.432;6.880;2023-02-21T15:21:01;1.40;;;1.30;;
12059;SDS011;6091;51.432;6.880;2023-02-21T15:23:38;1.45;;;1.35;;
12059;SDS011;6091;51.432;6.880;2023-02-21T15:31:35;1.50;;;1.33;;
12059;SDS011;6091;51.432;6.880;2023-02-21T15:34:15;1.58;;;1.48;;
12059;SDS011;6091;51.432;6.880;2023-02-21T15:37:02;3.38;;;1.63;;
12059;SDS011;6091;51.432;6.880;2023-02-21T15:39:50;2.42;;;1.80;;
12059;SDS011;6091;51.432;6.880;2023-02-21T15:42:25;2.08;;;1.67;;
12059;SDS011;6091;51.432;6.880;2023-02-21T15:45:17;2.08;;;1.63;;
12059;SDS011;6091;51.432;6.880;2023-02-21T15:47:55;1.95;;;1.50;;
12059;SDS011;6091;51.432;6.880;2023-02-21T15:50:38;2.00;;;1.45;;
12059;SDS011;6091;51.432;6.880;2023-02-21T15:53:11;2.03;;;1.70;;
12059;SDS011;6091;51.432;6.880;2023-02-21T15:55:46;3.05;;;1.70;;
12059;SDS011;6091;51.432;6.880;2023-02-21T15:58:18;3.75;;;1.77;;
12059;SDS011;6091;51.432;6.880;2023-02-21T16:00:47;3.08;;;1.45;;
12059;SDS011;6091;51.432;6.880;2023-02-21T16:03:41;3.33;;;1.48;;
12059;SDS011;6091;51.432;6.880;2023-02-21T16:06:22;3.85;;;1.65;;
12059;SDS011;6091;51.432;6.880;2023-02-21T16:09:16;2.40;;;1.63;;
12059;SDS011;6091;51.432;6.880;2023-02-21T16:14:46;1.52;;;1.42;;
12059;SDS011;6091;51.432;6.880;2023-02-21T16:17:31;2.17;;;1.58;;
12059;SDS011;6091;51.432;6.880;2023-02-21T16:20:14;2.33;;;1.60;;
12059;SDS011;6091;51.432;6.880;2023-02-21T16:22:43;1.80;;;1.40;;
12059;SDS011;6091;51.432;6.880;2023-02-21T16:25:52;1.60;;;1.50;;
12059;SDS011;6091;51.432;6.880;2023-02-21T16:28:38;1.30;;;1.20;;
12059;SDS011;6091;51.432;6.880;2023-02-21T16:31:07;4.43;;;1.60;;
12059;SDS011;6091;51.432;6.880;2023-02-21T16:33:41;1.50;;;1.40;;
12059;SDS011;6091;51.432;6.880;2023-02-21T16:36:14;4.43;;;1.50;;
12059;SDS011;6091;51.432;6.880;2023-02-21T16:38:56;1.90;;;1.63;;
12059;SDS011;6091;51.432;6.880;2023-02-21T16:41:24;1.60;;;1.50;;
12059;SDS011;6091;51.432;6.880;2023-02-21T16:43:51;2.95;;;1.33;;
12059;SDS011;6091;51.432;6.880;2023-02-21T16:46:22;1.40;;;1.17;;
12059;SDS011;6091;51.432;6.880;2023-02-21T16:48:55;2.85;;;1.50;;
12059;SDS011;6091;51.432;6.880;2023-02-21T16:51:24;1.50;;;1.40;;
12059;SDS011;6091;51.432;6.880;2023-02-21T16:53:58;3.13;;;1.23;;
12059;SDS011;6091;51.432;6.880;2023-02-21T16:56:26;2.35;;;1.42;;
12059;SDS011;6091;51.432;6.880;2023-02-21T16:58:54;1.25;;;1.15;;
12059;SDS011;6091;51.432;6.880;2023-02-21T17:03:55;1.50;;;1.40;;
12059;SDS011;6091;51.432;6.880;2023-02-21T17:06:23;1.63;;;1.40;;
12059;SDS011;6091;51.432;6.880;2023-02-21T17:08:52;1.42;;;1.33;;
12059;SDS011;6091;51.432;6.880;2023-02-21T17:11:20;1.50;;;1.40;;
12059;SDS011;6091;51.432;6.880;2023-02-21T17:13:47;2.20;;;1.58;;
12059;SDS011;6091;51.432;6.880;2023-02-21T17:16:14;1.55;;;1.45;;
12059;SDS011;6091;51.432;6.880;2023-02-21T17:18:44;2.13;;;1.48;;
12059;SDS011;6091;51.432;6.880;2023-02-21T17:21:11;2.97;;;1.60;;
12059;SDS011;6091;51.432;6.880;2023-02-21T17:23:39;2.80;;;1.60;;
12059;SDS011;6091;51.432;6.880;2023-02-21T17:26:07;2.90;;;1.55;;
12059;SDS011;6091;51.432;6.880;2023-02-21T17:28:34;2.47;;;1.65;;
12059;SDS011;6091;51.432;6.880;2023-02-21T17:31:04;1.67;;;1.58;;
12059;SDS011;6091;51.432;6.880;2023-02-21T17:33:31;1.67;;;1.58;;
12059;SDS011;6091;51.432;6.880;2023-02-21T17:35:58;1.70;;;1.60;;
12059;SDS011;6091;51.432;6.880;2023-02-21T17:38:25;1.65;;;1.55;;
12059;SDS011;6091;51.432;6.880;2023-02-21T17:40:52;2.42;;;1.70;;
12059;SDS011;6091;51.432;6.880;2023-02-21T17:43:19;1.95;;;1.67;;
12059;SDS011;6091;51.432;6.880;2023-02-21T17:45:46;1.70;;;1.60;;
12059;SDS011;6091;51.432;6.880;2023-02-21T17:48:13;1.88;;;1.70;;
12059;SDS011;6091;51.432;6.880;2023-02-21T17:50:40;1.58;;;1.48;;
12059;SDS011;6091;51.432;6.880;2023-02-21T17:53:07;2.00;;;1.80;;
12059;SDS011;6091;51.432;6.880;2023-02-21T17:55:34;2.30;;;2.00;;
12059;SDS011;6091;51.432;6.880;2023-02-21T17:58:01;1.80;;;1.70;;
12059;SDS011;6091;51.432;6.880;2023-02-21T18:00:28;2.25;;;1.88;;
12059;SDS011;6091;51.432;6.880;2023-02-21T18:02:59;2.00;;;1.80;;
12059;SDS011;6091;51.432;6.880;2023-02-21T18:05:30;1.83;;;1.70;;
12059;SDS011;6091;51.432;6.880;2023-02-21T18:07:57;2.05;;;1.85;;
12059;SDS011;6091;51.432;6.880;2023-02-21T18:10:24;2.30;;;2.10;;
12059;SDS011;6091;51.432;6.880;2023-02-21T18:12:52;2.03;;;1.90;;
12059;SDS011;6091;51.432;6.880;2023-02-21T18:15:23;2.83;;;1.90;;
12059;SDS011;6091;51.432;6.880;2023-02-21T18:17:55;2.10;;;1.90;;
12059;SDS011;6091;51.432;6.880;2023-02-21T18:20:24;2.28;;;2.13;;
12059;SDS011;6091;51.432;6.880;2023-02-21T18:22:51;2.28;;;2.08;;
12059;SDS011;6091;51.432;6.880;2023-02-21T18:25:18;2.35;;;2.10;;
12059;SDS011;6091;51.432;6.880;2023-02-21T18:27:47;2.42;;;2.20;;
12059;SDS011;6091;51.432;6.880;2023-02-21T18:30:16;2.42;;;2.22;;
12059;SDS011;6091;51.432;6.880;2023-02-21T18:32:44;2.70;;;2.30;;
12059;SDS011;6091;51.432;6.880;2023-02-21T18:35:13;2.42;;;2.22;;
12059;SDS011;6091;51.432;6.880;2023-02-21T18:37:41;2.60;;;2.40;;
12059;SDS011;6091;51.432;6.880;2023-02-21T18:40:12;2.50;;;2.00;;